sensor_id;sensor_type;location;lat;lon;timestamp;P1;durP1;ratioP1;P2;durP2;ratioP2
56363;SDS011;42261;52.094;4.326;2022-09-09T00:00:24;10.88;;;4.20;;
56363;SDS011;42261;52.094;4.326;2022-09-09T00:03:14;8.23;;;3.88;;
56363;SDS011;42261;52.094;4.326;2022-09-09T00:09:04;7.63;;;3.78;;
56363;SDS011;42261;52.094;4.326;2022-09-09T00:12:00;7.35;;;3.42;;
56363;SDS011;42261;52.094;4.326;2022-09-09T00:15:02;6.60;;;3.88;;
56363;SDS011;42261;52.094;4.326;2022-09-09T00:21:08;10.90;;;4.95;;
56363;SDS011;42261;52.094;4.326;2022-09-09T00:23:56;8.00;;;3.47;;
56363;SDS011;42261;52.094;4.326;2022-09-09T00:26:47;11.27;;;4.45;;
56363;SDS011;42261;52.094;4.326;2022-09-09T00:29:38;10.35;;;4.38;;
56363;SDS011;42261;52.094;4.326;2022-09-09T00:32:38;13.05;;;5.07;;
56363;SDS011;42261;52.094;4.326;2022-09-09T00:38:15;9.48;;;5.00;;
56363;SDS011;42261;52.094;4.326;2022-09-09T00:44:32;10.80;;;5.05;;
56363;SDS011;42261;52.094;4.326;2022-09-09T00:47:53;9.80;;;4.93;;
56363;SDS011;42261;52.094;4.326;2022-09-09T00:56:22;12.57;;;5.90;;
56363;SDS011;42261;52.094;4.326;2022-09-09T01:01:54;12.18;;;7.18;;
56363;SDS011;42261;52.094;4.326;2022-09-09T01:04:39;14.57;;;7.50;;
56363;SDS011;42261;52.094;4.326;2022-09-09T01:07:26;17.58;;;8.70;;
56363;SDS011;42261;52.094;4.326;2022-09-09T01:10:11;16.75;;;8.63;;
56363;SDS011;42261;52.094;4.326;2022-09-09T01:13:20;12.35;;;7.45;;
56363;SDS011;42261;52.094;4.326;2022-09-09T01:16:08;14.13;;;7.43;;
56363;SDS011;42261;52.094;4.326;2022-09-09T01:18:55;13.88;;;8.27;;
56363;SDS011;42261;52.094;4.326;2022-09-09T01:28:04;14.90;;;7.55;;
56363;SDS011;42261;52.094;4.326;2022-09-09T01:30:49;11.40;;;6.40;;
56363;SDS011;42261;52.094;4.326;2022-09-09T01:33:34;12.23;;;5.82;;
56363;SDS011;42261;52.094;4.326;2022-09-09T01:39:50;10.85;;;5.10;;
56363;SDS011;42261;52.094;4.326;2022-09-09T01:42:34;11.10;;;4.65;;
56363;SDS011;42261;52.094;4.326;2022-09-09T01:45:19;8.60;;;4.38;;
56363;SDS011;42261;52.094;4.326;2022-09-09T01:48:03;10.95;;;4.55;;
56363;SDS011;42261;52.094;4.326;2022-09-09T01:50:48;7.65;;;3.17;;
56363;SDS011;42261;52.094;4.326;2022-09-09T01:53:32;8.07;;;3.47;;
56363;SDS011;42261;52.094;4.326;2022-09-09T02:02:31;6.65;;;3.05;;
56363;SDS011;42261;52.094;4.326;2022-09-09T02:08:26;6.22;;;2.72;;
56363;SDS011;42261;52.094;4.326;2022-09-09T02:11:20;5.78;;;2.20;;
56363;SDS011;42261;52.094;4.326;2022-09-09T02:14:07;7.25;;;2.25;;
56363;SDS011;42261;52.094;4.326;2022-09-09T02:16:57;7.22;;;2.20;;
56363;SDS011;42261;52.094;4.326;2022-09-09T02:19:46;4.68;;;2.08;;
56363;SDS011;42261;52.094;4.326;2022-09-09T02:22:33;4.60;;;2.10;;
56363;SDS011;42261;52.094;4.326;2022-09-09T02:25:19;6.85;;;1.75;;
56363;SDS011;42261;52.094;4.326;2022-09-09T02:28:06;6.50;;;1.95;;
56363;SDS011;42261;52.094;4.326;2022-09-09T02:30:53;6.32;;;1.77;;
56363;SDS011;42261;52.094;4.326;2022-09-09T02:33:40;3.78;;;1.30;;
56363;SDS011;42261;52.094;4.326;2022-09-09T02:36:28;2.80;;;1.25;;
56363;SDS011;42261;52.094;4.326;2022-09-09T02:39:14;3.28;;;1.05;;
56363;SDS011;42261;52.094;4.326;2022-09-09T02:41:58;4.43;;;1.80;;
56363;SDS011;42261;52.094;4.326;2022-09-09T02:44:42;5.55;;;1.50;;
56363;SDS011;42261;52.094;4.326;2022-09-09T02:47:30;4.85;;;1.30;;
56363;SDS011;42261;52.094;4.326;2022-09-09T02:50:32;3.40;;;1.38;;
56363;SDS011;42261;52.094;4.326;2022-09-09T02:53:18;5.13;;;1.50;;
56363;SDS011;42261;52.094;4.326;2022-09-09T02:56:15;2.92;;;1.02;;
56363;SDS011;42261;52.094;4.326;2022-09-09T02:59:03;2.33;;;1.13;;
56363;SDS011;42261;52.094;4.326;2022-09-09T03:01:47;2.47;;;1.10;;
56363;SDS011;42261;52.094;4.326;2022-09-09T03:04:32;7.28;;;1.40;;
56363;SDS011;42261;52.094;4.326;2022-09-09T03:07:20;3.42;;;1.10;;
56363;SDS011;42261;52.094;4.326;2022-09-09T03:10:04;6.75;;;1.20;;
56363;SDS011;42261;52.094;4.326;2022-09-09T03:12:49;5.55;;;1.25;;
56363;SDS011;42261;52.094;4.326;2022-09-09T03:15:34;2.58;;;1.10;;
56363;SDS011;42261;52.094;4.326;2022-09-09T03:18:19;5.30;;;1.10;;
56363;SDS011;42261;52.094;4.326;2022-09-09T03:21:03;7.53;;;1.27;;
56363;SDS011;42261;52.094;4.326;2022-09-09T03:23:47;6.82;;;1.30;;
56363;SDS011;42261;52.094;4.326;2022-09-09T03:26:32;3.80;;;1.30;;
56363;SDS011;42261;52.094;4.326;2022-09-09T03:29:16;3.42;;;1.20;;
56363;SDS011;42261;52.094;4.326;2022-09-09T03:32:02;5.97;;;1.30;;
56363;SDS011;42261;52.094;4.326;2022-09-09T03:34:46;8.75;;;1.50;;
56363;SDS011;42261;52.094;4.326;2022-09-09T03:37:33;3.20;;;1.08;;
56363;SDS011;42261;52.094;4.326;2022-09-09T03:40:17;4.43;;;1.20;;
56363;SDS011;42261;52.094;4.326;2022-09-09T03:43:03;3.63;;;0.93;;
56363;SDS011;42261;52.094;4.326;2022-09-09T03:45:47;8.40;;;1.77;;
56363;SDS011;42261;52.094;4.326;2022-09-09T03:48:31;3.22;;;1.30;;
56363;SDS011;42261;52.094;4.326;2022-09-09T03:51:16;2.50;;;1.40;;
56363;SDS011;42261;52.094;4.326;2022-09-09T03:54:00;4.00;;;1.00;;
56363;SDS011;42261;52.094;4.326;2022-09-09T03:56:44;6.55;;;1.40;;
56363;SDS011;42261;52.094;4.326;2022-09-09T03:59:29;2.90;;;1.20;;
56363;SDS011;42261;52.094;4.326;2022-09-09T04:02:14;2.33;;;1.10;;
56363;SDS011;42261;52.094;4.326;2022-09-09T04:04:59;2.65;;;1.20;;
56363;SDS011;42261;52.094;4.326;2022-09-09T04:07:43;2.90;;;1.40;;
56363;SDS011;42261;52.094;4.326;2022-09-09T04:10:28;5.93;;;1.60;;
56363;SDS011;42261;52.094;4.326;2022-09-09T04:13:16;2.50;;;1.27;;
56363;SDS011;42261;52.094;4.326;2022-09-09T04:16:02;3.92;;;1.08;;
56363;SDS011;42261;52.094;4.326;2022-09-09T04:18:47;4.50;;;1.45;;
56363;SDS011;42261;52.094;4.326;2022-09-09T04:21:33;5.07;;;1.30;;
56363;SDS011;42261;52.094;4.326;2022-09-09T04:24:17;5.07;;;1.35;;
56363;SDS011;42261;52.094;4.326;2022-09-09T04:27:01;3.53;;;1.20;;
56363;SDS011;42261;52.094;4.326;2022-09-09T04:29:45;9.82;;;1.40;;
56363;SDS011;42261;52.094;4.326;2022-09-09T04:32:32;5.90;;;1.35;;
56363;SDS011;42261;52.094;4.326;2022-09-09T04:35:17;3.78;;;0.98;;
56363;SDS011;42261;52.094;4.326;2022-09-09T04:38:03;6.68;;;1.00;;
56363;SDS011;42261;52.094;4.326;2022-09-09T04:40:47;4.55;;;1.20;;
56363;SDS011;42261;52.094;4.326;2022-09-09T04:43:32;2.53;;;1.13;;
56363;SDS011;42261;52.094;4.326;2022-09-09T04:46:17;5.47;;;0.85;;
56363;SDS011;42261;52.094;4.326;2022-09-09T04:49:01;3.17;;;1.08;;
56363;SDS011;42261;52.094;4.326;2022-09-09T04:51:45;3.28;;;0.90;;
56363;SDS011;42261;52.094;4.326;2022-09-09T04:54:30;4.57;;;1.48;;
56363;SDS011;42261;52.094;4.326;2022-09-09T04:57:14;5.28;;;1.40;;
56363;SDS011;42261;52.094;4.326;2022-09-09T04:59:59;4.63;;;1.27;;
56363;SDS011;42261;52.094;4.326;2022-09-09T05:02:43;6.07;;;1.23;;
56363;SDS011;42261;52.094;4.326;2022-09-09T05:05:27;5.32;;;1.20;;
56363;SDS011;42261;52.094;4.326;2022-09-09T05:08:12;5.60;;;1.35;;
56363;SDS011;42261;52.094;4.326;2022-09-09T05:10:56;9.15;;;1.30;;
56363;SDS011;42261;52.094;4.326;2022-09-09T05:13:40;4.13;;;1.25;;
56363;SDS011;42261;52.094;4.326;2022-09-09T05:16:25;6.30;;;1.33;;
56363;SDS011;42261;52.094;4.326;2022-09-09T05:19:09;4.82;;;1.48;;
56363;SDS011;42261;52.094;4.326;2022-09-09T05:21:54;4.57;;;1.20;;
56363;SDS011;42261;52.094;4.326;2022-09-09T05:24:38;4.57;;;1.83;;
56363;SDS011;42261;52.094;4.326;2022-09-09T05:27:22;8.07;;;1.58;;
56363;SDS011;42261;52.094;4.326;2022-09-09T05:30:06;7.43;;;1.50;;
56363;SDS011;42261;52.094;4.326;2022-09-09T05:32:58;5.60;;;1.30;;
56363;SDS011;42261;52.094;4.326;2022-09-09T05:35:42;5.55;;;1.77;;
56363;SDS011;42261;52.094;4.326;2022-09-09T05:38:26;7.90;;;1.77;;
56363;SDS011;42261;52.094;4.326;2022-09-09T05:41:10;4.18;;;1.70;;
56363;SDS011;42261;52.094;4.326;2022-09-09T05:43:55;5.97;;;1.95;;
56363;SDS011;42261;52.094;4.326;2022-09-09T05:46:39;5.25;;;1.90;;
56363;SDS011;42261;52.094;4.326;2022-09-09T05:49:24;6.28;;;2.78;;
56363;SDS011;42261;52.094;4.326;2022-09-09T05:52:08;5.38;;;1.90;;
56363;SDS011;42261;52.094;4.326;2022-09-09T05:54:53;6.05;;;1.65;;
56363;SDS011;42261;52.094;4.326;2022-09-09T05:57:39;12.95;;;1.92;;
56363;SDS011;42261;52.094;4.326;2022-09-09T06:00:23;5.10;;;1.80;;
56363;SDS011;42261;52.094;4.326;2022-09-09T06:03:10;6.60;;;1.73;;
56363;SDS011;42261;52.094;4.326;2022-09-09T06:06:01;6.90;;;1.60;;
56363;SDS011;42261;52.094;4.326;2022-09-09T06:08:54;6.93;;;1.90;;
56363;SDS011;42261;52.094;4.326;2022-09-09T06:11:41;5.57;;;1.77;;
56363;SDS011;42261;52.094;4.326;2022-09-09T06:14:27;7.93;;;2.95;;
56363;SDS011;42261;52.094;4.326;2022-09-09T06:17:11;8.95;;;1.83;;
56363;SDS011;42261;52.094;4.326;2022-09-09T06:19:56;5.60;;;2.45;;
56363;SDS011;42261;52.094;4.326;2022-09-09T06:22:42;5.55;;;2.05;;
56363;SDS011;42261;52.094;4.326;2022-09-09T06:25:26;7.57;;;1.92;;
56363;SDS011;42261;52.094;4.326;2022-09-09T06:28:10;4.97;;;2.33;;
56363;SDS011;42261;52.094;4.326;2022-09-09T06:30:58;8.90;;;2.80;;
56363;SDS011;42261;52.094;4.326;2022-09-09T06:33:43;7.75;;;2.50;;
56363;SDS011;42261;52.094;4.326;2022-09-09T06:36:29;7.15;;;2.45;;
56363;SDS011;42261;52.094;4.326;2022-09-09T06:39:15;7.35;;;2.50;;
56363;SDS011;42261;52.094;4.326;2022-09-09T06:41:59;9.68;;;3.08;;
56363;SDS011;42261;52.094;4.326;2022-09-09T06:44:44;5.88;;;3.08;;
56363;SDS011;42261;52.094;4.326;2022-09-09T06:47:29;8.20;;;4.07;;
56363;SDS011;42261;52.094;4.326;2022-09-09T06:50:13;13.52;;;3.25;;
56363;SDS011;42261;52.094;4.326;2022-09-09T06:52:59;8.45;;;3.40;;
56363;SDS011;42261;52.094;4.326;2022-09-09T06:55:43;9.95;;;3.08;;
56363;SDS011;42261;52.094;4.326;2022-09-09T06:58:28;9.85;;;3.17;;
56363;SDS011;42261;52.094;4.326;2022-09-09T07:01:18;9.55;;;3.38;;
56363;SDS011;42261;52.094;4.326;2022-09-09T07:04:04;8.18;;;2.72;;
56363;SDS011;42261;52.094;4.326;2022-09-09T07:06:51;9.93;;;2.95;;
56363;SDS011;42261;52.094;4.326;2022-09-09T07:09:36;13.38;;;3.08;;
56363;SDS011;42261;52.094;4.326;2022-09-09T07:12:20;9.35;;;3.58;;
56363;SDS011;42261;52.094;4.326;2022-09-09T07:15:04;3.92;;;2.60;;
56363;SDS011;42261;52.094;4.326;2022-09-09T07:17:48;8.07;;;3.03;;
56363;SDS011;42261;52.094;4.326;2022-09-09T07:20:34;7.68;;;3.00;;
56363;SDS011;42261;52.094;4.326;2022-09-09T07:23:19;7.13;;;3.13;;
56363;SDS011;42261;52.094;4.326;2022-09-09T07:26:06;6.88;;;2.97;;
56363;SDS011;42261;52.094;4.326;2022-09-09T07:28:52;7.05;;;2.60;;
56363;SDS011;42261;52.094;4.326;2022-09-09T07:31:37;8.48;;;3.30;;
56363;SDS011;42261;52.094;4.326;2022-09-09T07:34:23;7.65;;;3.50;;
56363;SDS011;42261;52.094;4.326;2022-09-09T07:37:07;8.05;;;3.30;;
56363;SDS011;42261;52.094;4.326;2022-09-09T07:39:53;9.55;;;3.72;;
56363;SDS011;42261;52.094;4.326;2022-09-09T07:42:37;10.00;;;3.28;;
56363;SDS011;42261;52.094;4.326;2022-09-09T07:45:22;6.82;;;2.67;;
56363;SDS011;42261;52.094;4.326;2022-09-09T07:48:07;7.45;;;2.67;;
56363;SDS011;42261;52.094;4.326;2022-09-09T07:50:52;9.52;;;3.25;;
56363;SDS011;42261;52.094;4.326;2022-09-09T07:53:37;7.55;;;3.10;;
56363;SDS011;42261;52.094;4.326;2022-09-09T07:56:22;8.77;;;2.90;;
56363;SDS011;42261;52.094;4.326;2022-09-09T07:59:07;6.40;;;2.70;;
56363;SDS011;42261;52.094;4.326;2022-09-09T08:01:51;8.50;;;3.00;;
56363;SDS011;42261;52.094;4.326;2022-09-09T08:04:38;8.88;;;3.22;;
56363;SDS011;42261;52.094;4.326;2022-09-09T08:07:23;8.48;;;2.95;;
56363;SDS011;42261;52.094;4.326;2022-09-09T08:10:08;5.53;;;3.03;;
56363;SDS011;42261;52.094;4.326;2022-09-09T08:12:52;5.55;;;2.65;;
56363;SDS011;42261;52.094;4.326;2022-09-09T08:15:37;7.97;;;3.40;;
56363;SDS011;42261;52.094;4.326;2022-09-09T08:18:21;7.65;;;2.72;;
56363;SDS011;42261;52.094;4.326;2022-09-09T08:21:10;9.32;;;2.38;;
56363;SDS011;42261;52.094;4.326;2022-09-09T08:23:59;6.47;;;2.55;;
56363;SDS011;42261;52.094;4.326;2022-09-09T08:26:46;10.25;;;2.88;;
56363;SDS011;42261;52.094;4.326;2022-09-09T08:29:32;5.47;;;2.40;;
56363;SDS011;42261;52.094;4.326;2022-09-09T08:32:16;5.72;;;2.45;;
56363;SDS011;42261;52.094;4.326;2022-09-09T08:35:02;9.27;;;2.60;;
56363;SDS011;42261;52.094;4.326;2022-09-09T08:37:47;6.38;;;2.53;;
56363;SDS011;42261;52.094;4.326;2022-09-09T08:40:32;5.13;;;2.92;;
56363;SDS011;42261;52.094;4.326;2022-09-09T08:43:21;10.75;;;2.40;;
56363;SDS011;42261;52.094;4.326;2022-09-09T08:46:14;6.05;;;2.40;;
56363;SDS011;42261;52.094;4.326;2022-09-09T08:52:02;8.55;;;2.30;;
56363;SDS011;42261;52.094;4.326;2022-09-09T08:54:46;4.55;;;2.35;;
56363;SDS011;42261;52.094;4.326;2022-09-09T08:57:31;7.93;;;2.00;;
56363;SDS011;42261;52.094;4.326;2022-09-09T09:00:16;5.22;;;2.20;;
56363;SDS011;42261;52.094;4.326;2022-09-09T09:03:22;7.97;;;2.38;;
56363;SDS011;42261;52.094;4.326;2022-09-09T09:15:08;4.13;;;2.20;;
56363;SDS011;42261;52.094;4.326;2022-09-09T09:18:00;7.07;;;2.53;;
56363;SDS011;42261;52.094;4.326;2022-09-09T09:20:47;7.65;;;2.15;;
56363;SDS011;42261;52.094;4.326;2022-09-09T09:23:48;7.20;;;2.92;;
56363;SDS011;42261;52.094;4.326;2022-09-09T09:26:39;9.07;;;2.45;;
56363;SDS011;42261;52.094;4.326;2022-09-09T09:29:25;5.07;;;2.65;;
56363;SDS011;42261;52.094;4.326;2022-09-09T09:32:10;6.32;;;2.40;;
56363;SDS011;42261;52.094;4.326;2022-09-09T09:34:58;7.68;;;3.13;;
56363;SDS011;42261;52.094;4.326;2022-09-09T09:37:43;11.38;;;2.90;;
56363;SDS011;42261;52.094;4.326;2022-09-09T09:40:30;4.72;;;2.10;;
56363;SDS011;42261;52.094;4.326;2022-09-09T09:43:18;6.10;;;2.30;;
56363;SDS011;42261;52.094;4.326;2022-09-09T09:46:05;5.75;;;2.00;;
56363;SDS011;42261;52.094;4.326;2022-09-09T09:49:04;3.63;;;1.90;;
56363;SDS011;42261;52.094;4.326;2022-09-09T09:51:49;15.05;;;3.58;;
56363;SDS011;42261;52.094;4.326;2022-09-09T09:54:38;7.60;;;2.38;;
56363;SDS011;42261;52.094;4.326;2022-09-09T09:57:24;5.35;;;1.98;;
56363;SDS011;42261;52.094;4.326;2022-09-09T10:00:20;4.85;;;2.20;;
56363;SDS011;42261;52.094;4.326;2022-09-09T10:03:14;15.60;;;3.20;;
56363;SDS011;42261;52.094;4.326;2022-09-09T10:06:06;7.00;;;2.63;;
56363;SDS011;42261;52.094;4.326;2022-09-09T10:08:51;7.90;;;2.97;;
56363;SDS011;42261;52.094;4.326;2022-09-09T10:15:14;3.63;;;2.03;;
56363;SDS011;42261;52.094;4.326;2022-09-09T10:24:22;5.55;;;2.13;;
56363;SDS011;42261;52.094;4.326;2022-09-09T10:30:04;6.43;;;2.15;;
56363;SDS011;42261;52.094;4.326;2022-09-09T10:35:54;5.45;;;2.40;;
56363;SDS011;42261;52.094;4.326;2022-09-09T10:38:53;6.97;;;2.45;;
56363;SDS011;42261;52.094;4.326;2022-09-09T10:54:16;7.82;;;2.58;;
56363;SDS011;42261;52.094;4.326;2022-09-09T10:57:22;8.30;;;2.92;;
56363;SDS011;42261;52.094;4.326;2022-09-09T11:00:21;8.10;;;2.88;;
56363;SDS011;42261;52.094;4.326;2022-09-09T11:03:09;6.60;;;2.90;;
56363;SDS011;42261;52.094;4.326;2022-09-09T11:06:04;5.97;;;2.33;;
56363;SDS011;42261;52.094;4.326;2022-09-09T11:08:50;6.15;;;2.42;;
56363;SDS011;42261;52.094;4.326;2022-09-09T11:11:38;7.57;;;2.33;;
56363;SDS011;42261;52.094;4.326;2022-09-09T11:14:45;5.90;;;2.50;;
56363;SDS011;42261;52.094;4.326;2022-09-09T11:17:40;6.28;;;2.17;;
56363;SDS011;42261;52.094;4.326;2022-09-09T11:20:30;4.88;;;2.28;;
56363;SDS011;42261;52.094;4.326;2022-09-09T11:23:21;6.53;;;2.40;;
56363;SDS011;42261;52.094;4.326;2022-09-09T11:26:11;3.70;;;2.13;;
56363;SDS011;42261;52.094;4.326;2022-09-09T11:41:32;4.78;;;2.03;;
56363;SDS011;42261;52.094;4.326;2022-09-09T11:44:19;4.97;;;2.40;;
56363;SDS011;42261;52.094;4.326;2022-09-09T11:53:04;7.55;;;2.60;;
56363;SDS011;42261;52.094;4.326;2022-09-09T11:56:01;4.57;;;1.85;;
56363;SDS011;42261;52.094;4.326;2022-09-09T11:58:54;4.50;;;2.03;;
56363;SDS011;42261;52.094;4.326;2022-09-09T12:01:41;3.90;;;1.70;;
56363;SDS011;42261;52.094;4.326;2022-09-09T12:04:31;3.30;;;1.70;;
56363;SDS011;42261;52.094;4.326;2022-09-09T12:07:23;5.13;;;1.88;;
56363;SDS011;42261;52.094;4.326;2022-09-09T12:10:28;3.75;;;1.52;;
56363;SDS011;42261;52.094;4.326;2022-09-09T12:13:20;3.92;;;1.60;;
56363;SDS011;42261;52.094;4.326;2022-09-09T12:16:26;5.03;;;2.88;;
56363;SDS011;42261;52.094;4.326;2022-09-09T12:19:19;4.47;;;1.50;;
56363;SDS011;42261;52.094;4.326;2022-09-09T12:22:07;2.97;;;1.52;;
56363;SDS011;42261;52.094;4.326;2022-09-09T12:25:20;4.55;;;1.90;;
56363;SDS011;42261;52.094;4.326;2022-09-09T12:31:43;6.45;;;1.80;;
56363;SDS011;42261;52.094;4.326;2022-09-09T12:34:47;3.10;;;1.60;;
56363;SDS011;42261;52.094;4.326;2022-09-09T12:37:37;4.82;;;1.80;;
56363;SDS011;42261;52.094;4.326;2022-09-09T12:40:24;4.40;;;1.88;;
56363;SDS011;42261;52.094;4.326;2022-09-09T12:43:21;6.32;;;1.90;;
56363;SDS011;42261;52.094;4.326;2022-09-09T12:46:11;5.15;;;1.70;;
56363;SDS011;42261;52.094;4.326;2022-09-09T12:49:04;3.47;;;1.50;;
56363;SDS011;42261;52.094;4.326;2022-09-09T12:51:49;5.00;;;1.55;;
56363;SDS011;42261;52.094;4.326;2022-09-09T12:54:34;5.05;;;1.80;;
56363;SDS011;42261;52.094;4.326;2022-09-09T12:57:21;1.95;;;1.48;;
56363;SDS011;42261;52.094;4.326;2022-09-09T13:00:21;2.33;;;1.20;;
56363;SDS011;42261;52.094;4.326;2022-09-09T13:03:17;4.15;;;1.40;;
56363;SDS011;42261;52.094;4.326;2022-09-09T13:06:11;4.32;;;1.55;;
56363;SDS011;42261;52.094;4.326;2022-09-09T13:08:57;2.47;;;1.30;;
56363;SDS011;42261;52.094;4.326;2022-09-09T13:11:46;4.28;;;1.23;;
56363;SDS011;42261;52.094;4.326;2022-09-09T13:14:35;1.90;;;1.35;;
56363;SDS011;42261;52.094;4.326;2022-09-09T13:17:24;3.40;;;1.40;;
56363;SDS011;42261;52.094;4.326;2022-09-09T13:20:17;2.25;;;1.30;;
56363;SDS011;42261;52.094;4.326;2022-09-09T13:23:02;4.20;;;1.25;;
56363;SDS011;42261;52.094;4.326;2022-09-09T13:25:58;2.70;;;1.10;;
56363;SDS011;42261;52.094;4.326;2022-09-09T13:28:44;4.35;;;1.30;;
56363;SDS011;42261;52.094;4.326;2022-09-09T13:31:32;5.40;;;1.42;;
56363;SDS011;42261;52.094;4.326;2022-09-09T13:34:28;4.80;;;1.50;;
56363;SDS011;42261;52.094;4.326;2022-09-09T13:37:19;2.35;;;1.27;;
56363;SDS011;42261;52.094;4.326;2022-09-09T13:40:18;3.58;;;1.27;;
56363;SDS011;42261;52.094;4.326;2022-09-09T13:43:05;2.60;;;1.15;;
56363;SDS011;42261;52.094;4.326;2022-09-09T13:46:00;3.60;;;1.25;;
56363;SDS011;42261;52.094;4.326;2022-09-09T13:52:14;2.13;;;0.85;;
56363;SDS011;42261;52.094;4.326;2022-09-09T13:55:01;4.22;;;1.25;;
56363;SDS011;42261;52.094;4.326;2022-09-09T13:58:01;5.00;;;1.13;;
56363;SDS011;42261;52.094;4.326;2022-09-09T14:00:47;3.85;;;1.40;;
56363;SDS011;42261;52.094;4.326;2022-09-09T14:03:31;5.40;;;1.10;;
56363;SDS011;42261;52.094;4.326;2022-09-09T14:06:16;1.63;;;0.90;;
56363;SDS011;42261;52.094;4.326;2022-09-09T14:09:04;3.88;;;0.90;;
56363;SDS011;42261;52.094;4.326;2022-09-09T14:11:49;4.65;;;0.98;;
56363;SDS011;42261;52.094;4.326;2022-09-09T14:14:33;5.68;;;1.38;;
56363;SDS011;42261;52.094;4.326;2022-09-09T14:17:18;2.40;;;1.20;;
56363;SDS011;42261;52.094;4.326;2022-09-09T14:20:03;6.68;;;1.40;;
56363;SDS011;42261;52.094;4.326;2022-09-09T14:22:52;6.13;;;1.70;;
56363;SDS011;42261;52.094;4.326;2022-09-09T14:25:39;3.83;;;1.10;;
56363;SDS011;42261;52.094;4.326;2022-09-09T14:28:24;7.43;;;1.65;;
56363;SDS011;42261;52.094;4.326;2022-09-09T14:31:09;6.35;;;1.52;;
56363;SDS011;42261;52.094;4.326;2022-09-09T14:33:54;4.88;;;1.27;;
56363;SDS011;42261;52.094;4.326;2022-09-09T14:36:38;5.30;;;1.38;;
56363;SDS011;42261;52.094;4.326;2022-09-09T14:39:23;5.13;;;1.10;;
56363;SDS011;42261;52.094;4.326;2022-09-09T14:42:07;2.72;;;1.10;;
56363;SDS011;42261;52.094;4.326;2022-09-09T14:44:52;4.68;;;1.20;;
56363;SDS011;42261;52.094;4.326;2022-09-09T14:47:36;2.35;;;0.95;;
56363;SDS011;42261;52.094;4.326;2022-09-09T14:50:22;8.93;;;1.30;;
56363;SDS011;42261;52.094;4.326;2022-09-09T14:53:07;5.00;;;1.27;;
56363;SDS011;42261;52.094;4.326;2022-09-09T14:55:52;3.83;;;1.27;;
56363;SDS011;42261;52.094;4.326;2022-09-09T14:58:37;5.00;;;1.30;;
56363;SDS011;42261;52.094;4.326;2022-09-09T15:01:22;7.97;;;1.30;;
56363;SDS011;42261;52.094;4.326;2022-09-09T15:04:07;3.03;;;0.90;;
56363;SDS011;42261;52.094;4.326;2022-09-09T15:06:51;1.77;;;1.15;;
56363;SDS011;42261;52.094;4.326;2022-09-09T15:09:37;5.47;;;1.00;;
56363;SDS011;42261;52.094;4.326;2022-09-09T15:12:21;5.75;;;1.00;;
56363;SDS011;42261;52.094;4.326;2022-09-09T15:15:06;6.88;;;1.10;;
56363;SDS011;42261;52.094;4.326;2022-09-09T15:17:50;4.15;;;1.23;;
56363;SDS011;42261;52.094;4.326;2022-09-09T15:20:34;3.38;;;0.95;;
56363;SDS011;42261;52.094;4.326;2022-09-09T15:23:19;2.72;;;1.10;;
56363;SDS011;42261;52.094;4.326;2022-09-09T15:26:03;2.63;;;1.02;;
56363;SDS011;42261;52.094;4.326;2022-09-09T15:28:48;4.05;;;1.02;;
56363;SDS011;42261;52.094;4.326;2022-09-09T15:31:33;2.38;;;0.98;;
56363;SDS011;42261;52.094;4.326;2022-09-09T15:34:19;3.80;;;1.30;;
56363;SDS011;42261;52.094;4.326;2022-09-09T15:37:03;2.55;;;1.27;;
56363;SDS011;42261;52.094;4.326;2022-09-09T15:39:47;5.28;;;1.45;;
56363;SDS011;42261;52.094;4.326;2022-09-09T15:42:35;4.10;;;1.73;;
56363;SDS011;42261;52.094;4.326;2022-09-09T15:45:19;8.13;;;1.40;;
56363;SDS011;42261;52.094;4.326;2022-09-09T15:48:04;3.17;;;1.38;;
56363;SDS011;42261;52.094;4.326;2022-09-09T15:50:59;5.68;;;1.50;;
56363;SDS011;42261;52.094;4.326;2022-09-09T15:53:46;3.63;;;1.45;;
56363;SDS011;42261;52.094;4.326;2022-09-09T15:56:33;8.63;;;1.50;;
56363;SDS011;42261;52.094;4.326;2022-09-09T15:59:18;8.05;;;1.50;;
56363;SDS011;42261;52.094;4.326;2022-09-09T16:02:03;5.72;;;1.30;;
56363;SDS011;42261;52.094;4.326;2022-09-09T16:04:48;5.40;;;1.55;;
56363;SDS011;42261;52.094;4.326;2022-09-09T16:07:33;4.63;;;1.27;;
56363;SDS011;42261;52.094;4.326;2022-09-09T16:10:18;4.32;;;1.33;;
56363;SDS011;42261;52.094;4.326;2022-09-09T16:13:03;4.75;;;1.50;;
56363;SDS011;42261;52.094;4.326;2022-09-09T16:15:53;4.35;;;2.05;;
56363;SDS011;42261;52.094;4.326;2022-09-09T16:18:48;4.57;;;1.77;;
56363;SDS011;42261;52.094;4.326;2022-09-09T16:21:36;5.47;;;1.85;;
56363;SDS011;42261;52.094;4.326;2022-09-09T16:24:23;5.55;;;1.52;;
56363;SDS011;42261;52.094;4.326;2022-09-09T16:27:08;4.93;;;1.60;;
56363;SDS011;42261;52.094;4.326;2022-09-09T16:29:52;6.07;;;1.80;;
56363;SDS011;42261;52.094;4.326;2022-09-09T16:32:38;5.63;;;1.67;;
56363;SDS011;42261;52.094;4.326;2022-09-09T16:35:22;6.43;;;1.90;;
56363;SDS011;42261;52.094;4.326;2022-09-09T16:38:07;6.70;;;2.30;;
56363;SDS011;42261;52.094;4.326;2022-09-09T16:40:51;7.28;;;2.53;;
56363;SDS011;42261;52.094;4.326;2022-09-09T16:43:36;5.65;;;1.92;;
56363;SDS011;42261;52.094;4.326;2022-09-09T16:46:21;4.57;;;1.65;;
56363;SDS011;42261;52.094;4.326;2022-09-09T16:49:09;10.30;;;2.30;;
56363;SDS011;42261;52.094;4.326;2022-09-09T16:51:56;5.00;;;1.80;;
56363;SDS011;42261;52.094;4.326;2022-09-09T16:54:42;6.93;;;1.80;;
56363;SDS011;42261;52.094;4.326;2022-09-09T16:57:26;4.60;;;1.30;;
56363;SDS011;42261;52.094;4.326;2022-09-09T17:00:14;3.95;;;1.73;;
56363;SDS011;42261;52.094;4.326;2022-09-09T17:03:01;3.67;;;1.55;;
56363;SDS011;42261;52.094;4.326;2022-09-09T17:05:45;2.00;;;1.40;;
56363;SDS011;42261;52.094;4.326;2022-09-09T17:08:30;4.35;;;1.50;;
56363;SDS011;42261;52.094;4.326;2022-09-09T17:11:15;4.53;;;1.45;;
56363;SDS011;42261;52.094;4.326;2022-09-09T17:14:01;3.80;;;1.48;;
56363;SDS011;42261;52.094;4.326;2022-09-09T17:16:48;7.17;;;2.00;;
56363;SDS011;42261;52.094;4.326;2022-09-09T17:19:33;5.47;;;1.55;;
56363;SDS011;42261;52.094;4.326;2022-09-09T17:22:18;11.05;;;1.55;;
56363;SDS011;42261;52.094;4.326;2022-09-09T17:25:03;5.90;;;1.60;;
56363;SDS011;42261;52.094;4.326;2022-09-09T17:27:48;7.47;;;1.20;;
56363;SDS011;42261;52.094;4.326;2022-09-09T17:30:33;2.88;;;1.15;;
56363;SDS011;42261;52.094;4.326;2022-09-09T17:33:18;4.35;;;1.05;;
56363;SDS011;42261;52.094;4.326;2022-09-09T17:36:15;1.88;;;0.80;;
56363;SDS011;42261;52.094;4.326;2022-09-09T17:39:10;2.78;;;0.68;;
56363;SDS011;42261;52.094;4.326;2022-09-09T17:41:54;4.07;;;0.65;;
56363;SDS011;42261;52.094;4.326;2022-09-09T17:44:38;2.50;;;0.90;;
56363;SDS011;42261;52.094;4.326;2022-09-09T17:47:23;0.93;;;0.57;;
56363;SDS011;42261;52.094;4.326;2022-09-09T17:50:09;4.40;;;1.13;;
56363;SDS011;42261;52.094;4.326;2022-09-09T17:52:56;5.72;;;0.95;;
56363;SDS011;42261;52.094;4.326;2022-09-09T17:55:41;5.15;;;0.70;;
56363;SDS011;42261;52.094;4.326;2022-09-09T17:58:26;4.53;;;1.20;;
56363;SDS011;42261;52.094;4.326;2022-09-09T18:01:12;5.30;;;1.65;;
56363;SDS011;42261;52.094;4.326;2022-09-09T18:03:58;5.30;;;1.20;;
56363;SDS011;42261;52.094;4.326;2022-09-09T18:06:48;5.90;;;1.17;;
56363;SDS011;42261;52.094;4.326;2022-09-09T18:09:34;3.20;;;1.08;;
56363;SDS011;42261;52.094;4.326;2022-09-09T18:12:18;2.33;;;1.00;;
56363;SDS011;42261;52.094;4.326;2022-09-09T18:15:02;4.13;;;1.40;;
56363;SDS011;42261;52.094;4.326;2022-09-09T18:17:48;8.07;;;1.65;;
56363;SDS011;42261;52.094;4.326;2022-09-09T18:20:33;3.85;;;1.40;;
56363;SDS011;42261;52.094;4.326;2022-09-09T18:23:17;4.57;;;1.50;;
56363;SDS011;42261;52.094;4.326;2022-09-09T18:26:05;4.93;;;1.45;;
56363;SDS011;42261;52.094;4.326;2022-09-09T18:28:55;8.93;;;1.63;;
56363;SDS011;42261;52.094;4.326;2022-09-09T18:31:41;7.05;;;1.80;;